Naracoorte, South Australia

1:25 AM CST on July 31, 2014 (GMT +0930)
Mount Gambier (YMTG) Elev 210 ft | 37.75 °S, 140.79 °E | Change Station

Current weather conditions updated 25 minutes ago

Mostly Cloudy
Mostly Cloudy
57 °F
Feels Like 57 °F
N
26
Wind Variable Wind from NNW
Gusts 38 mph

Today is forecast to be Cooler than yesterday. Rain.

Today
High -- | Low -- °F
--% Chance of Precip.
Yesterday
High -- | Low -- °F
Precip. -- in
7:06 AM 5:20 PM
Waxing Crescent, 12% visible
Pressure 29.59 in
Visibility 6.2 miles
Clouds Scattered Clouds 2500 ft
Mostly Cloudy 7300 ft
Dew Point 48 °F
Humidity 72%
Rainfall 0.00 in
Snow Depth Not available.
UV 0 out of 12
Pollen Not available.
Air Quality Not available.
Flu Activity Not available.
SPECI YMTG 301530Z AUTO 33023G33KT 9999 // SCT025 BKN073 14/09 Q1002

More Conditions Fewer Conditions

Pressure 29.59 in
Visibility 6.2 miles
Clouds Scattered Clouds 2500 ft
Mostly Cloudy 7300 ft
Dew Point 48 °F
Humidity 72%
Rainfall 0.00 in
Snow Depth Not available.
UV 0 out of 12
Pollen Not available.
Air Quality Not available.
Flu Activity Not available.
SPECI YMTG 301530Z AUTO 33023G33KT 9999 // SCT025 BKN073 14/09 Q1002

More Conditions Fewer Conditions

10-Day Weather Forecast

Almanac

Astronomy

Jul. 31, 2014 Rise Set
Actual Time 7:06 AM CST 5:20 PM CST
Civil Twilight 6:39 AM CST 5:48 PM CST
Nautical Twilight 6:07 AM CST 6:19 PM CST
Astronomical Twilight 5:37 AM CST 6:50 PM CST
Moon 9:01 AM CST (7/31) 9:22 PM CST (7/31)
Length of Visible Light 11h 08m
Length of Day
10h 13m
Tomorrow will be 1m 42s longer.
Waxing Crescent, 12% of the Moon is Illuminated
Jul 30
Waxing Crescent
Aug 3
First Quarter
Aug 10
Full
Aug 17
Last Quarter
Aug 25
New

Yesterday's Extremes

Country Highs Country Lows

Community

WunderPhotos

Upload Photos

1,739,115 photos uploaded!

WunderBlogs® & News

By Dr. Jeff Masters
Director of Meteorology, Weather Underground
By Kari Strenfel
Meteorologist, Weather Underground
By Christopher C. Burt
Weather Historian, Weather Underground
July 30, 2014
July 30, 2014
July 30, 2014

Nearby

Snow Depth

Not available.

Earthquake Activity

City Distance Mag. Time & Date
No recent earthquake activity has been reported nearby.
Minimum magnitude displayed is 2.5.

Coastal Water Temperatures

Place Temperature
No Stations Reporting

Nearby Weather Stations

There are no personal weather stations in this area.